sensor_id;sensor_type;location;lat;lon;timestamp;P1;durP1;ratioP1;P2;durP2;ratioP2
40252;SDS011;25972;51.854;4.534;2022-09-27T00:01:07;15.00;;;13.20;;
40252;SDS011;25972;51.854;4.534;2022-09-27T00:03:35;14.18;;;12.98;;
40252;SDS011;25972;51.854;4.534;2022-09-27T00:06:05;14.07;;;13.10;;
40252;SDS011;25972;51.854;4.534;2022-09-27T00:08:34;13.63;;;12.45;;
40252;SDS011;25972;51.854;4.534;2022-09-27T00:11:00;14.43;;;13.43;;
40252;SDS011;25972;51.854;4.534;2022-09-27T00:13:28;14.88;;;13.70;;
40252;SDS011;25972;51.854;4.534;2022-09-27T00:15:54;14.93;;;13.63;;
40252;SDS011;25972;51.854;4.534;2022-09-27T00:18:21;14.80;;;13.50;;
40252;SDS011;25972;51.854;4.534;2022-09-27T00:20:47;14.48;;;13.15;;
40252;SDS011;25972;51.854;4.534;2022-09-27T00:23:13;14.23;;;13.07;;
40252;SDS011;25972;51.854;4.534;2022-09-27T00:25:39;16.40;;;13.70;;
40252;SDS011;25972;51.854;4.534;2022-09-27T00:28:05;14.57;;;13.50;;
40252;SDS011;25972;51.854;4.534;2022-09-27T00:30:32;15.48;;;13.82;;
40252;SDS011;25972;51.854;4.534;2022-09-27T00:32:58;14.80;;;13.35;;
40252;SDS011;25972;51.854;4.534;2022-09-27T00:35:23;16.45;;;13.07;;
40252;SDS011;25972;51.854;4.534;2022-09-27T00:37:49;14.70;;;13.40;;
40252;SDS011;25972;51.854;4.534;2022-09-27T00:40:15;14.57;;;13.35;;
40252;SDS011;25972;51.854;4.534;2022-09-27T00:42:41;14.77;;;13.50;;
40252;SDS011;25972;51.854;4.534;2022-09-27T00:45:11;15.00;;;13.65;;
40252;SDS011;25972;51.854;4.534;2022-09-27T00:47:45;14.27;;;13.02;;
40252;SDS011;25972;51.854;4.534;2022-09-27T00:50:35;13.57;;;12.77;;
40252;SDS011;25972;51.854;4.534;2022-09-27T00:55:36;18.08;;;13.93;;
40252;SDS011;25972;51.854;4.534;2022-09-27T00:58:09;14.40;;;10.80;;
40252;SDS011;25972;51.854;4.534;2022-09-27T01:00:41;13.20;;;10.57;;
40252;SDS011;25972;51.854;4.534;2022-09-27T01:03:14;14.15;;;10.05;;
40252;SDS011;25972;51.854;4.534;2022-09-27T01:05:54;11.60;;;10.45;;
40252;SDS011;25972;51.854;4.534;2022-09-27T01:08:22;11.70;;;10.70;;
40252;SDS011;25972;51.854;4.534;2022-09-27T01:10:51;10.85;;;9.93;;
40252;SDS011;25972;51.854;4.534;2022-09-27T01:13:34;16.55;;;10.32;;
40252;SDS011;25972;51.854;4.534;2022-09-27T01:16:10;13.68;;;10.68;;
40252;SDS011;25972;51.854;4.534;2022-09-27T01:21:45;13.57;;;10.32;;
40252;SDS011;25972;51.854;4.534;2022-09-27T01:29:32;13.90;;;10.40;;
40252;SDS011;25972;51.854;4.534;2022-09-27T01:32:34;14.15;;;10.02;;
40252;SDS011;25972;51.854;4.534;2022-09-27T01:40:39;11.88;;;10.13;;
40252;SDS011;25972;51.854;4.534;2022-09-27T01:46:39;15.45;;;9.95;;
40252;SDS011;25972;51.854;4.534;2022-09-27T01:49:16;11.10;;;9.90;;
40252;SDS011;25972;51.854;4.534;2022-09-27T01:51:49;13.35;;;10.43;;
40252;SDS011;25972;51.854;4.534;2022-09-27T01:54:22;11.48;;;10.40;;
40252;SDS011;25972;51.854;4.534;2022-09-27T01:57:10;14.10;;;12.80;;
40252;SDS011;25972;51.854;4.534;2022-09-27T01:59:42;15.10;;;13.77;;
40252;SDS011;25972;51.854;4.534;2022-09-27T02:02:48;17.40;;;14.52;;
40252;SDS011;25972;51.854;4.534;2022-09-27T02:05:32;15.57;;;14.38;;
40252;SDS011;25972;51.854;4.534;2022-09-27T02:08:57;17.05;;;15.50;;
40252;SDS011;25972;51.854;4.534;2022-09-27T02:11:52;16.23;;;14.75;;
40252;SDS011;25972;51.854;4.534;2022-09-27T02:14:23;16.00;;;14.48;;
40252;SDS011;25972;51.854;4.534;2022-09-27T02:22:35;16.33;;;15.02;;
40252;SDS011;25972;51.854;4.534;2022-09-27T02:28:05;16.92;;;15.43;;
40252;SDS011;25972;51.854;4.534;2022-09-27T02:30:36;15.43;;;14.32;;
40252;SDS011;25972;51.854;4.534;2022-09-27T02:33:14;16.23;;;14.88;;
40252;SDS011;25972;51.854;4.534;2022-09-27T02:35:42;15.25;;;14.25;;
40252;SDS011;25972;51.854;4.534;2022-09-27T02:38:07;16.40;;;15.02;;
40252;SDS011;25972;51.854;4.534;2022-09-27T02:40:35;15.38;;;14.13;;
40252;SDS011;25972;51.854;4.534;2022-09-27T02:43:08;16.08;;;14.65;;
40252;SDS011;25972;51.854;4.534;2022-09-27T03:05:32;16.17;;;14.55;;
40252;SDS011;25972;51.854;4.534;2022-09-27T03:08:03;15.57;;;14.48;;
40252;SDS011;25972;51.854;4.534;2022-09-27T03:10:31;16.50;;;14.90;;
40252;SDS011;25972;51.854;4.534;2022-09-27T03:12:57;15.88;;;14.40;;
40252;SDS011;25972;51.854;4.534;2022-09-27T03:15:23;16.63;;;15.07;;
40252;SDS011;25972;51.854;4.534;2022-09-27T03:18:15;16.27;;;14.55;;
40252;SDS011;25972;51.854;4.534;2022-09-27T03:21:13;16.05;;;14.57;;
40252;SDS011;25972;51.854;4.534;2022-09-27T03:23:39;15.52;;;14.20;;
40252;SDS011;25972;51.854;4.534;2022-09-27T03:26:05;17.17;;;15.50;;
40252;SDS011;25972;51.854;4.534;2022-09-27T03:28:31;16.27;;;14.50;;
40252;SDS011;25972;51.854;4.534;2022-09-27T03:30:57;16.77;;;15.23;;
40252;SDS011;25972;51.854;4.534;2022-09-27T03:33:43;15.95;;;14.45;;
40252;SDS011;25972;51.854;4.534;2022-09-27T03:36:10;16.40;;;14.88;;
40252;SDS011;25972;51.854;4.534;2022-09-27T03:38:36;16.90;;;15.50;;
40252;SDS011;25972;51.854;4.534;2022-09-27T03:41:03;16.42;;;15.02;;
40252;SDS011;25972;51.854;4.534;2022-09-27T03:43:29;15.63;;;14.63;;
40252;SDS011;25972;51.854;4.534;2022-09-27T03:45:59;15.85;;;14.85;;
40252;SDS011;25972;51.854;4.534;2022-09-27T03:48:25;16.15;;;14.85;;
40252;SDS011;25972;51.854;4.534;2022-09-27T03:50:51;15.95;;;14.77;;
40252;SDS011;25972;51.854;4.534;2022-09-27T03:53:16;16.55;;;15.27;;
40252;SDS011;25972;51.854;4.534;2022-09-27T03:55:44;16.20;;;15.07;;
40252;SDS011;25972;51.854;4.534;2022-09-27T03:58:10;16.08;;;14.65;;
40252;SDS011;25972;51.854;4.534;2022-09-27T04:00:36;17.10;;;15.75;;
40252;SDS011;25972;51.854;4.534;2022-09-27T04:03:02;16.48;;;15.18;;
40252;SDS011;25972;51.854;4.534;2022-09-27T04:05:47;16.15;;;14.88;;
40252;SDS011;25972;51.854;4.534;2022-09-27T04:08:17;17.23;;;16.08;;
40252;SDS011;25972;51.854;4.534;2022-09-27T04:10:45;18.63;;;17.00;;
40252;SDS011;25972;51.854;4.534;2022-09-27T04:13:11;18.17;;;16.67;;
40252;SDS011;25972;51.854;4.534;2022-09-27T04:15:45;18.42;;;16.90;;
40252;SDS011;25972;51.854;4.534;2022-09-27T04:18:14;18.55;;;17.08;;
40252;SDS011;25972;51.854;4.534;2022-09-27T04:21:00;18.38;;;16.95;;
40252;SDS011;25972;51.854;4.534;2022-09-27T04:23:27;18.80;;;17.23;;
40252;SDS011;25972;51.854;4.534;2022-09-27T04:25:53;18.08;;;16.80;;
40252;SDS011;25972;51.854;4.534;2022-09-27T04:28:38;17.30;;;16.00;;
40252;SDS011;25972;51.854;4.534;2022-09-27T04:31:05;17.70;;;16.20;;
40252;SDS011;25972;51.854;4.534;2022-09-27T04:33:51;16.98;;;15.68;;
40252;SDS011;25972;51.854;4.534;2022-09-27T04:36:21;17.25;;;16.15;;
40252;SDS011;25972;51.854;4.534;2022-09-27T04:41:43;17.17;;;15.82;;
40252;SDS011;25972;51.854;4.534;2022-09-27T04:44:10;17.13;;;15.85;;
40252;SDS011;25972;51.854;4.534;2022-09-27T04:46:37;17.40;;;15.75;;
40252;SDS011;25972;51.854;4.534;2022-09-27T04:49:03;16.77;;;15.48;;
40252;SDS011;25972;51.854;4.534;2022-09-27T04:51:31;17.33;;;16.02;;
40252;SDS011;25972;51.854;4.534;2022-09-27T04:53:58;17.55;;;16.05;;
40252;SDS011;25972;51.854;4.534;2022-09-27T04:56:34;17.60;;;15.90;;
40252;SDS011;25972;51.854;4.534;2022-09-27T04:59:01;17.50;;;16.13;;
40252;SDS011;25972;51.854;4.534;2022-09-27T05:01:28;17.17;;;15.70;;
40252;SDS011;25972;51.854;4.534;2022-09-27T05:04:03;16.77;;;15.48;;
40252;SDS011;25972;51.854;4.534;2022-09-27T05:06:29;16.83;;;15.52;;
40252;SDS011;25972;51.854;4.534;2022-09-27T05:08:59;17.00;;;15.43;;
40252;SDS011;25972;51.854;4.534;2022-09-27T05:11:28;17.70;;;16.23;;
40252;SDS011;25972;51.854;4.534;2022-09-27T05:14:13;16.73;;;15.15;;
40252;SDS011;25972;51.854;4.534;2022-09-27T05:16:59;17.63;;;16.42;;
40252;SDS011;25972;51.854;4.534;2022-09-27T05:19:28;17.67;;;15.95;;
40252;SDS011;25972;51.854;4.534;2022-09-27T05:22:23;17.42;;;15.93;;
40252;SDS011;25972;51.854;4.534;2022-09-27T05:24:50;15.90;;;14.80;;
40252;SDS011;25972;51.854;4.534;2022-09-27T05:27:15;15.85;;;14.75;;
40252;SDS011;25972;51.854;4.534;2022-09-27T05:29:47;16.02;;;14.88;;
40252;SDS011;25972;51.854;4.534;2022-09-27T05:32:22;16.27;;;15.07;;
40252;SDS011;25972;51.854;4.534;2022-09-27T05:34:55;16.58;;;15.13;;
40252;SDS011;25972;51.854;4.534;2022-09-27T05:37:21;16.42;;;15.23;;
40252;SDS011;25972;51.854;4.534;2022-09-27T05:39:47;16.90;;;15.70;;
40252;SDS011;25972;51.854;4.534;2022-09-27T05:42:14;17.35;;;15.75;;
40252;SDS011;25972;51.854;4.534;2022-09-27T05:44:40;17.45;;;15.98;;
40252;SDS011;25972;51.854;4.534;2022-09-27T05:47:06;17.20;;;15.73;;
40252;SDS011;25972;51.854;4.534;2022-09-27T05:49:32;16.25;;;15.15;;
40252;SDS011;25972;51.854;4.534;2022-09-27T05:52:00;17.63;;;16.33;;
40252;SDS011;25972;51.854;4.534;2022-09-27T05:54:27;17.23;;;15.93;;
40252;SDS011;25972;51.854;4.534;2022-09-27T05:56:55;17.35;;;15.73;;
40252;SDS011;25972;51.854;4.534;2022-09-27T05:59:38;15.98;;;14.80;;
40252;SDS011;25972;51.854;4.534;2022-09-27T06:02:20;16.83;;;15.27;;
40252;SDS011;25972;51.854;4.534;2022-09-27T06:05:04;16.42;;;14.90;;
40252;SDS011;25972;51.854;4.534;2022-09-27T06:07:50;17.30;;;16.02;;
40252;SDS011;25972;51.854;4.534;2022-09-27T06:10:24;18.45;;;16.77;;
40252;SDS011;25972;51.854;4.534;2022-09-27T06:12:50;18.35;;;17.05;;
40252;SDS011;25972;51.854;4.534;2022-09-27T06:15:34;18.77;;;17.48;;
40252;SDS011;25972;51.854;4.534;2022-09-27T06:18:02;18.98;;;17.48;;
40252;SDS011;25972;51.854;4.534;2022-09-27T06:20:31;18.50;;;17.25;;
40252;SDS011;25972;51.854;4.534;2022-09-27T06:23:08;19.38;;;17.65;;
40252;SDS011;25972;51.854;4.534;2022-09-27T06:25:37;17.63;;;16.50;;
40252;SDS011;25972;51.854;4.534;2022-09-27T06:28:17;18.90;;;17.42;;
40252;SDS011;25972;51.854;4.534;2022-09-27T06:30:46;19.00;;;17.52;;
40252;SDS011;25972;51.854;4.534;2022-09-27T06:33:21;19.02;;;17.35;;
40252;SDS011;25972;51.854;4.534;2022-09-27T06:35:51;18.48;;;17.23;;
40252;SDS011;25972;51.854;4.534;2022-09-27T06:38:18;19.55;;;17.85;;
40252;SDS011;25972;51.854;4.534;2022-09-27T06:41:18;19.23;;;17.58;;
40252;SDS011;25972;51.854;4.534;2022-09-27T06:44:02;19.80;;;17.95;;
40252;SDS011;25972;51.854;4.534;2022-09-27T06:47:03;19.58;;;17.70;;
40252;SDS011;25972;51.854;4.534;2022-09-27T06:49:43;19.48;;;17.88;;
40252;SDS011;25972;51.854;4.534;2022-09-27T06:52:12;18.15;;;16.95;;
40252;SDS011;25972;51.854;4.534;2022-09-27T06:54:39;19.08;;;17.75;;
40252;SDS011;25972;51.854;4.534;2022-09-27T06:57:05;19.20;;;17.88;;
40252;SDS011;25972;51.854;4.534;2022-09-27T06:59:32;18.10;;;16.90;;
40252;SDS011;25972;51.854;4.534;2022-09-27T07:05:33;19.30;;;17.85;;
40252;SDS011;25972;51.854;4.534;2022-09-27T07:08:25;17.92;;;16.83;;
40252;SDS011;25972;51.854;4.534;2022-09-27T07:10:53;19.60;;;18.15;;
40252;SDS011;25972;51.854;4.534;2022-09-27T07:13:21;20.50;;;18.98;;
40252;SDS011;25972;51.854;4.534;2022-09-27T07:15:47;19.40;;;18.10;;
40252;SDS011;25972;51.854;4.534;2022-09-27T07:18:13;19.83;;;18.25;;
40252;SDS011;25972;51.854;4.534;2022-09-27T07:20:39;19.70;;;18.30;;
40252;SDS011;25972;51.854;4.534;2022-09-27T07:23:06;19.42;;;18.00;;
40252;SDS011;25972;51.854;4.534;2022-09-27T07:25:33;19.15;;;17.55;;
40252;SDS011;25972;51.854;4.534;2022-09-27T07:28:00;19.33;;;17.75;;
40252;SDS011;25972;51.854;4.534;2022-09-27T07:30:27;19.20;;;17.80;;
40252;SDS011;25972;51.854;4.534;2022-09-27T07:32:57;19.90;;;18.40;;
40252;SDS011;25972;51.854;4.534;2022-09-27T07:37:52;20.38;;;18.67;;
40252;SDS011;25972;51.854;4.534;2022-09-27T07:40:20;20.00;;;18.42;;
40252;SDS011;25972;51.854;4.534;2022-09-27T07:42:46;20.05;;;18.30;;
40252;SDS011;25972;51.854;4.534;2022-09-27T07:45:12;20.77;;;19.08;;
40252;SDS011;25972;51.854;4.534;2022-09-27T07:48:05;19.80;;;18.20;;
40252;SDS011;25972;51.854;4.534;2022-09-27T07:50:55;19.70;;;18.23;;
40252;SDS011;25972;51.854;4.534;2022-09-27T07:53:42;20.00;;;18.42;;
40252;SDS011;25972;51.854;4.534;2022-09-27T07:56:27;20.77;;;19.17;;
40252;SDS011;25972;51.854;4.534;2022-09-27T07:58:54;20.63;;;19.05;;
40252;SDS011;25972;51.854;4.534;2022-09-27T08:01:20;19.90;;;18.15;;
40252;SDS011;25972;51.854;4.534;2022-09-27T08:03:46;20.15;;;18.42;;
40252;SDS011;25972;51.854;4.534;2022-09-27T08:06:13;21.25;;;19.30;;
40252;SDS011;25972;51.854;4.534;2022-09-27T08:08:41;19.95;;;18.30;;
40252;SDS011;25972;51.854;4.534;2022-09-27T08:11:11;20.55;;;18.92;;
40252;SDS011;25972;51.854;4.534;2022-09-27T08:13:42;21.50;;;19.30;;
40252;SDS011;25972;51.854;4.534;2022-09-27T08:16:09;21.85;;;19.58;;
40252;SDS011;25972;51.854;4.534;2022-09-27T08:18:54;21.23;;;19.48;;
40252;SDS011;25972;51.854;4.534;2022-09-27T08:21:45;21.58;;;19.80;;
40252;SDS011;25972;51.854;4.534;2022-09-27T08:24:20;20.77;;;19.23;;
40252;SDS011;25972;51.854;4.534;2022-09-27T08:27:03;20.58;;;18.80;;
40252;SDS011;25972;51.854;4.534;2022-09-27T08:29:44;20.17;;;18.65;;
40252;SDS011;25972;51.854;4.534;2022-09-27T08:32:10;20.88;;;19.05;;
40252;SDS011;25972;51.854;4.534;2022-09-27T08:34:36;20.15;;;18.30;;
40252;SDS011;25972;51.854;4.534;2022-09-27T08:37:03;20.38;;;18.65;;
40252;SDS011;25972;51.854;4.534;2022-09-27T08:39:30;19.67;;;18.17;;
40252;SDS011;25972;51.854;4.534;2022-09-27T08:42:05;19.23;;;17.92;;
40252;SDS011;25972;51.854;4.534;2022-09-27T08:50:20;19.52;;;17.95;;
40252;SDS011;25972;51.854;4.534;2022-09-27T08:52:48;20.35;;;18.48;;
40252;SDS011;25972;51.854;4.534;2022-09-27T08:55:29;19.90;;;18.48;;
40252;SDS011;25972;51.854;4.534;2022-09-27T08:58:03;19.33;;;17.92;;
40252;SDS011;25972;51.854;4.534;2022-09-27T09:00:48;20.30;;;18.70;;
40252;SDS011;25972;51.854;4.534;2022-09-27T09:03:23;18.95;;;17.65;;
40252;SDS011;25972;51.854;4.534;2022-09-27T09:08:50;19.63;;;18.15;;
40252;SDS011;25972;51.854;4.534;2022-09-27T09:14:59;20.60;;;18.95;;
40252;SDS011;25972;51.854;4.534;2022-09-27T09:21:18;19.33;;;18.02;;
40252;SDS011;25972;51.854;4.534;2022-09-27T09:26:47;19.33;;;17.90;;
40252;SDS011;25972;51.854;4.534;2022-09-27T09:32:15;20.15;;;18.45;;
40252;SDS011;25972;51.854;4.534;2022-09-27T09:34:51;19.38;;;17.83;;
40252;SDS011;25972;51.854;4.534;2022-09-27T09:42:53;18.52;;;17.33;;
40252;SDS011;25972;51.854;4.534;2022-09-27T09:45:29;19.40;;;18.05;;
40252;SDS011;25972;51.854;4.534;2022-09-27T09:48:12;19.20;;;18.00;;
40252;SDS011;25972;51.854;4.534;2022-09-27T09:50:43;19.50;;;18.30;;
40252;SDS011;25972;51.854;4.534;2022-09-27T09:58:56;18.77;;;17.58;;
40252;SDS011;25972;51.854;4.534;2022-09-27T10:01:35;19.55;;;18.25;;
40252;SDS011;25972;51.854;4.534;2022-09-27T10:04:06;19.88;;;18.30;;
40252;SDS011;25972;51.854;4.534;2022-09-27T10:06:35;18.75;;;17.55;;
40252;SDS011;25972;51.854;4.534;2022-09-27T10:09:01;20.10;;;18.60;;
40252;SDS011;25972;51.854;4.534;2022-09-27T10:11:41;19.85;;;18.55;;
40252;SDS011;25972;51.854;4.534;2022-09-27T10:14:16;19.70;;;18.08;;
40252;SDS011;25972;51.854;4.534;2022-09-27T10:16:47;19.33;;;17.95;;
40252;SDS011;25972;51.854;4.534;2022-09-27T10:19:25;20.17;;;18.50;;
40252;SDS011;25972;51.854;4.534;2022-09-27T10:21:58;18.75;;;17.50;;
40252;SDS011;25972;51.854;4.534;2022-09-27T10:24:28;19.58;;;18.27;;
40252;SDS011;25972;51.854;4.534;2022-09-27T10:27:07;20.33;;;18.92;;
40252;SDS011;25972;51.854;4.534;2022-09-27T10:29:35;20.08;;;18.67;;
40252;SDS011;25972;51.854;4.534;2022-09-27T10:32:04;20.85;;;18.92;;
40252;SDS011;25972;51.854;4.534;2022-09-27T10:34:43;20.25;;;18.95;;
40252;SDS011;25972;51.854;4.534;2022-09-27T10:39:40;19.88;;;18.58;;
40252;SDS011;25972;51.854;4.534;2022-09-27T10:48:18;19.80;;;18.33;;
40252;SDS011;25972;51.854;4.534;2022-09-27T10:50:57;20.10;;;18.80;;
40252;SDS011;25972;51.854;4.534;2022-09-27T10:53:48;19.85;;;18.50;;
40252;SDS011;25972;51.854;4.534;2022-09-27T10:56:24;20.17;;;18.85;;
40252;SDS011;25972;51.854;4.534;2022-09-27T10:58:56;20.35;;;18.75;;
40252;SDS011;25972;51.854;4.534;2022-09-27T11:01:26;21.33;;;19.70;;
40252;SDS011;25972;51.854;4.534;2022-09-27T11:04:33;21.10;;;19.70;;
40252;SDS011;25972;51.854;4.534;2022-09-27T11:07:17;20.77;;;19.33;;
40252;SDS011;25972;51.854;4.534;2022-09-27T11:09:55;21.38;;;19.85;;
40252;SDS011;25972;51.854;4.534;2022-09-27T11:12:29;21.48;;;19.90;;
40252;SDS011;25972;51.854;4.534;2022-09-27T11:14:59;20.65;;;19.35;;
40252;SDS011;25972;51.854;4.534;2022-09-27T11:25:52;24.40;;;22.65;;
40252;SDS011;25972;51.854;4.534;2022-09-27T11:45:33;24.13;;;22.15;;
40252;SDS011;25972;51.854;4.534;2022-09-27T11:59:02;23.77;;;21.88;;
40252;SDS011;25972;51.854;4.534;2022-09-27T12:01:37;24.25;;;22.35;;
40252;SDS011;25972;51.854;4.534;2022-09-27T12:09:41;23.58;;;21.50;;
40252;SDS011;25972;51.854;4.534;2022-09-27T12:12:13;24.02;;;21.98;;
40252;SDS011;25972;51.854;4.534;2022-09-27T12:17:32;23.10;;;21.20;;
40252;SDS011;25972;51.854;4.534;2022-09-27T12:20:05;22.90;;;20.90;;
40252;SDS011;25972;51.854;4.534;2022-09-27T12:22:57;22.98;;;20.90;;
40252;SDS011;25972;51.854;4.534;2022-09-27T12:25:48;21.08;;;19.30;;
40252;SDS011;25972;51.854;4.534;2022-09-27T12:28:25;20.27;;;18.65;;
40252;SDS011;25972;51.854;4.534;2022-09-27T12:31:00;19.15;;;17.52;;
40252;SDS011;25972;51.854;4.534;2022-09-27T12:33:41;19.83;;;18.02;;
40252;SDS011;25972;51.854;4.534;2022-09-27T12:36:20;19.35;;;17.85;;
40252;SDS011;25972;51.854;4.534;2022-09-27T12:38:52;18.70;;;16.92;;
40252;SDS011;25972;51.854;4.534;2022-09-27T12:41:30;17.52;;;15.93;;
40252;SDS011;25972;51.854;4.534;2022-09-27T12:44:20;17.45;;;16.05;;
40252;SDS011;25972;51.854;4.534;2022-09-27T12:52:11;17.33;;;15.93;;
40252;SDS011;25972;51.854;4.534;2022-09-27T12:55:01;15.25;;;14.20;;
40252;SDS011;25972;51.854;4.534;2022-09-27T13:00:45;17.33;;;15.43;;
40252;SDS011;25972;51.854;4.534;2022-09-27T13:22:49;11.20;;;10.30;;
40252;SDS011;25972;51.854;4.534;2022-09-27T13:28:33;9.60;;;8.43;;
40252;SDS011;25972;51.854;4.534;2022-09-27T13:48:46;9.88;;;8.10;;
40252;SDS011;25972;51.854;4.534;2022-09-27T13:51:33;11.27;;;8.00;;
40252;SDS011;25972;51.854;4.534;2022-09-27T13:54:00;10.63;;;8.18;;
40252;SDS011;25972;51.854;4.534;2022-09-27T13:59:07;9.80;;;7.60;;
40252;SDS011;25972;51.854;4.534;2022-09-27T14:01:59;10.45;;;6.80;;
40252;SDS011;25972;51.854;4.534;2022-09-27T14:04:48;12.82;;;6.85;;
40252;SDS011;25972;51.854;4.534;2022-09-27T14:07:17;10.57;;;6.32;;
40252;SDS011;25972;51.854;4.534;2022-09-27T14:09:52;8.77;;;6.32;;
40252;SDS011;25972;51.854;4.534;2022-09-27T14:12:27;11.40;;;6.83;;
40252;SDS011;25972;51.854;4.534;2022-09-27T14:15:04;6.35;;;5.47;;
40252;SDS011;25972;51.854;4.534;2022-09-27T14:17:33;11.07;;;7.32;;
40252;SDS011;25972;51.854;4.534;2022-09-27T14:20:00;11.00;;;6.00;;
40252;SDS011;25972;51.854;4.534;2022-09-27T14:22:28;7.28;;;5.18;;
40252;SDS011;25972;51.854;4.534;2022-09-27T14:24:59;8.05;;;4.90;;
40252;SDS011;25972;51.854;4.534;2022-09-27T14:27:34;9.23;;;5.00;;
40252;SDS011;25972;51.854;4.534;2022-09-27T14:30:28;12.80;;;5.95;;
40252;SDS011;25972;51.854;4.534;2022-09-27T14:33:31;6.28;;;4.45;;
40252;SDS011;25972;51.854;4.534;2022-09-27T14:36:28;7.28;;;4.47;;
40252;SDS011;25972;51.854;4.534;2022-09-27T14:39:15;6.10;;;4.63;;
40252;SDS011;25972;51.854;4.534;2022-09-27T14:41:49;7.53;;;4.05;;
40252;SDS011;25972;51.854;4.534;2022-09-27T14:44:19;7.93;;;4.28;;
40252;SDS011;25972;51.854;4.534;2022-09-27T14:46:46;5.72;;;4.38;;
40252;SDS011;25972;51.854;4.534;2022-09-27T14:49:22;10.48;;;4.47;;
40252;SDS011;25972;51.854;4.534;2022-09-27T14:51:52;6.07;;;4.10;;
40252;SDS011;25972;51.854;4.534;2022-09-27T14:54:27;8.63;;;3.85;;
40252;SDS011;25972;51.854;4.534;2022-09-27T14:56:55;6.78;;;4.07;;
40252;SDS011;25972;51.854;4.534;2022-09-27T14:59:25;5.18;;;3.55;;
40252;SDS011;25972;51.854;4.534;2022-09-27T15:01:58;4.82;;;3.50;;
40252;SDS011;25972;51.854;4.534;2022-09-27T15:04:26;6.63;;;3.42;;
40252;SDS011;25972;51.854;4.534;2022-09-27T15:06:54;4.63;;;3.60;;
40252;SDS011;25972;51.854;4.534;2022-09-27T15:09:21;5.38;;;3.47;;
40252;SDS011;25972;51.854;4.534;2022-09-27T15:11:50;6.75;;;3.60;;
40252;SDS011;25972;51.854;4.534;2022-09-27T15:14:19;3.55;;;3.13;;
40252;SDS011;25972;51.854;4.534;2022-09-27T15:16:47;5.90;;;3.22;;
40252;SDS011;25972;51.854;4.534;2022-09-27T15:19:24;4.47;;;3.40;;
40252;SDS011;25972;51.854;4.534;2022-09-27T15:21:52;5.28;;;3.35;;
40252;SDS011;25972;51.854;4.534;2022-09-27T15:27:04;4.20;;;3.60;;
40252;SDS011;25972;51.854;4.534;2022-09-27T15:29:52;6.07;;;3.63;;
40252;SDS011;25972;51.854;4.534;2022-09-27T15:32:21;6.70;;;3.70;;
40252;SDS011;25972;51.854;4.534;2022-09-27T15:34:48;6.65;;;3.67;;
40252;SDS011;25972;51.854;4.534;2022-09-27T15:42:59;5.30;;;3.47;;
40252;SDS011;25972;51.854;4.534;2022-09-27T15:45:27;5.60;;;3.47;;
40252;SDS011;25972;51.854;4.534;2022-09-27T15:48:33;3.45;;;3.10;;
40252;SDS011;25972;51.854;4.534;2022-09-27T15:50:53;6.47;;;3.63;;
40252;SDS011;25972;51.854;4.534;2022-09-27T15:56:00;4.38;;;3.35;;
40252;SDS011;25972;51.854;4.534;2022-09-27T15:58:27;5.65;;;3.58;;
40252;SDS011;25972;51.854;4.534;2022-09-27T16:00:57;7.68;;;3.67;;
40252;SDS011;25972;51.854;4.534;2022-09-27T16:03:26;5.68;;;3.47;;
40252;SDS011;25972;51.854;4.534;2022-09-27T16:05:54;7.47;;;3.33;;
40252;SDS011;25972;51.854;4.534;2022-09-27T16:08:21;6.63;;;3.50;;
40252;SDS011;25972;51.854;4.534;2022-09-27T16:10:49;6.90;;;3.67;;
40252;SDS011;25972;51.854;4.534;2022-09-27T16:13:16;4.78;;;3.30;;
40252;SDS011;25972;51.854;4.534;2022-09-27T16:15:42;6.15;;;4.05;;
40252;SDS011;25972;51.854;4.534;2022-09-27T16:18:09;7.80;;;3.55;;
40252;SDS011;25972;51.854;4.534;2022-09-27T16:20:35;4.60;;;3.45;;
40252;SDS011;25972;51.854;4.534;2022-09-27T16:23:00;9.90;;;4.05;;
40252;SDS011;25972;51.854;4.534;2022-09-27T16:25:26;5.78;;;3.78;;
40252;SDS011;25972;51.854;4.534;2022-09-27T16:27:56;4.35;;;3.10;;
40252;SDS011;25972;51.854;4.534;2022-09-27T16:30:23;5.78;;;3.60;;
40252;SDS011;25972;51.854;4.534;2022-09-27T16:32:49;5.47;;;3.60;;
40252;SDS011;25972;51.854;4.534;2022-09-27T16:35:15;8.32;;;3.70;;
40252;SDS011;25972;51.854;4.534;2022-09-27T16:37:42;6.88;;;3.85;;
40252;SDS011;25972;51.854;4.534;2022-09-27T16:40:09;7.10;;;4.38;;
40252;SDS011;25972;51.854;4.534;2022-09-27T16:42:37;7.57;;;3.67;;
40252;SDS011;25972;51.854;4.534;2022-09-27T16:45:04;8.23;;;3.53;;
40252;SDS011;25972;51.854;4.534;2022-09-27T16:47:31;7.45;;;4.20;;
40252;SDS011;25972;51.854;4.534;2022-09-27T16:49:57;8.05;;;3.95;;
40252;SDS011;25972;51.854;4.534;2022-09-27T16:52:41;10.57;;;3.63;;
40252;SDS011;25972;51.854;4.534;2022-09-27T16:55:12;6.57;;;3.65;;
40252;SDS011;25972;51.854;4.534;2022-09-27T16:57:40;5.90;;;3.22;;
40252;SDS011;25972;51.854;4.534;2022-09-27T17:00:06;5.47;;;3.58;;
40252;SDS011;25972;51.854;4.534;2022-09-27T17:02:32;7.18;;;4.30;;
40252;SDS011;25972;51.854;4.534;2022-09-27T17:04:58;11.05;;;4.10;;
40252;SDS011;25972;51.854;4.534;2022-09-27T17:07:24;4.82;;;3.40;;
40252;SDS011;25972;51.854;4.534;2022-09-27T17:09:50;22.63;;;9.40;;
40252;SDS011;25972;51.854;4.534;2022-09-27T17:12:16;9.93;;;5.70;;
40252;SDS011;25972;51.854;4.534;2022-09-27T17:14:42;6.32;;;3.67;;
40252;SDS011;25972;51.854;4.534;2022-09-27T17:17:08;4.22;;;2.95;;
40252;SDS011;25972;51.854;4.534;2022-09-27T17:19:34;3.88;;;3.22;;
40252;SDS011;25972;51.854;4.534;2022-09-27T17:22:03;7.38;;;3.40;;
40252;SDS011;25972;51.854;4.534;2022-09-27T17:24:30;9.18;;;3.70;;
40252;SDS011;25972;51.854;4.534;2022-09-27T17:26:56;5.80;;;2.92;;
40252;SDS011;25972;51.854;4.534;2022-09-27T17:29:22;4.53;;;3.05;;
40252;SDS011;25972;51.854;4.534;2022-09-27T17:31:48;3.88;;;3.15;;
40252;SDS011;25972;51.854;4.534;2022-09-27T17:34:14;4.63;;;3.35;;
40252;SDS011;25972;51.854;4.534;2022-09-27T17:36:40;6.72;;;4.35;;
40252;SDS011;25972;51.854;4.534;2022-09-27T17:39:12;6.47;;;4.97;;
40252;SDS011;25972;51.854;4.534;2022-09-27T17:41:42;7.88;;;4.10;;
40252;SDS011;25972;51.854;4.534;2022-09-27T17:44:10;6.47;;;3.50;;
40252;SDS011;25972;51.854;4.534;2022-09-27T17:46:37;4.00;;;3.28;;
40252;SDS011;25972;51.854;4.534;2022-09-27T17:49:03;5.82;;;3.22;;
40252;SDS011;25972;51.854;4.534;2022-09-27T17:51:49;4.10;;;3.30;;
40252;SDS011;25972;51.854;4.534;2022-09-27T17:54:17;5.78;;;3.75;;
40252;SDS011;25972;51.854;4.534;2022-09-27T17:56:45;6.53;;;3.83;;
40252;SDS011;25972;51.854;4.534;2022-09-27T17:59:12;6.07;;;4.25;;
40252;SDS011;25972;51.854;4.534;2022-09-27T18:01:41;6.45;;;3.53;;
40252;SDS011;25972;51.854;4.534;2022-09-27T18:04:09;6.63;;;3.60;;
40252;SDS011;25972;51.854;4.534;2022-09-27T18:06:38;13.85;;;7.22;;
40252;SDS011;25972;51.854;4.534;2022-09-27T18:09:05;5.90;;;4.15;;
40252;SDS011;25972;51.854;4.534;2022-09-27T18:11:33;13.85;;;5.85;;
40252;SDS011;25972;51.854;4.534;2022-09-27T18:13:59;10.50;;;5.93;;
40252;SDS011;25972;51.854;4.534;2022-09-27T18:16:26;11.35;;;5.15;;
40252;SDS011;25972;51.854;4.534;2022-09-27T18:18:55;9.40;;;4.88;;
40252;SDS011;25972;51.854;4.534;2022-09-27T18:21:22;12.20;;;7.25;;
40252;SDS011;25972;51.854;4.534;2022-09-27T18:23:51;10.73;;;5.30;;
40252;SDS011;25972;51.854;4.534;2022-09-27T18:26:19;6.80;;;4.45;;